sensor_id;sensor_type;location;lat;lon;timestamp;temperature;humidity
52867;DHT22;38739;53.324;6.862;2023-06-22T00:00:49;16.50;99.90
52867;DHT22;38739;53.324;6.862;2023-06-22T00:03:15;16.50;99.90
52867;DHT22;38739;53.324;6.862;2023-06-22T00:05:41;16.50;99.90
52867;DHT22;38739;53.324;6.862;2023-06-22T00:08:06;16.50;99.90
52867;DHT22;38739;53.324;6.862;2023-06-22T00:10:32;16.50;99.90
52867;DHT22;38739;53.324;6.862;2023-06-22T00:12:58;16.50;99.90
52867;DHT22;38739;53.324;6.862;2023-06-22T00:15:24;16.40;99.90
52867;DHT22;38739;53.324;6.862;2023-06-22T00:17:51;16.40;99.90
52867;DHT22;38739;53.324;6.862;2023-06-22T00:20:17;16.40;99.90
52867;DHT22;38739;53.324;6.862;2023-06-22T00:22:44;16.40;99.90
52867;DHT22;38739;53.324;6.862;2023-06-22T00:25:11;16.30;99.90
52867;DHT22;38739;53.324;6.862;2023-06-22T00:27:37;16.30;99.90
52867;DHT22;38739;53.324;6.862;2023-06-22T00:30:03;16.20;99.90
52867;DHT22;38739;53.324;6.862;2023-06-22T00:32:29;16.20;99.90
52867;DHT22;38739;53.324;6.862;2023-06-22T00:34:55;16.20;99.90
52867;DHT22;38739;53.324;6.862;2023-06-22T00:37:20;16.10;99.90
52867;DHT22;38739;53.324;6.862;2023-06-22T00:39:51;16.10;99.90
52867;DHT22;38739;53.324;6.862;2023-06-22T00:42:17;16.10;99.90
52867;DHT22;38739;53.324;6.862;2023-06-22T00:44:43;16.00;99.90
52867;DHT22;38739;53.324;6.862;2023-06-22T00:47:11;16.00;99.90
52867;DHT22;38739;53.324;6.862;2023-06-22T00:49:39;16.00;99.90
52867;DHT22;38739;53.324;6.862;2023-06-22T00:52:06;16.00;99.90
52867;DHT22;38739;53.324;6.862;2023-06-22T00:54:36;15.90;99.90
52867;DHT22;38739;53.324;6.862;2023-06-22T00:57:02;15.90;99.90
52867;DHT22;38739;53.324;6.862;2023-06-22T00:59:28;15.80;99.90
52867;DHT22;38739;53.324;6.862;2023-06-22T01:01:54;15.80;99.90
52867;DHT22;38739;53.324;6.862;2023-06-22T01:04:21;15.70;99.90
52867;DHT22;38739;53.324;6.862;2023-06-22T01:09:33;15.70;99.90
52867;DHT22;38739;53.324;6.862;2023-06-22T01:12:04;15.60;99.90
52867;DHT22;38739;53.324;6.862;2023-06-22T01:14:40;15.60;99.90
52867;DHT22;38739;53.324;6.862;2023-06-22T01:17:08;15.60;99.90
52867;DHT22;38739;53.324;6.862;2023-06-22T01:19:52;15.50;99.90
52867;DHT22;38739;53.324;6.862;2023-06-22T01:22:24;15.50;99.90
52867;DHT22;38739;53.324;6.862;2023-06-22T01:30:27;15.40;99.90
52867;DHT22;38739;53.324;6.862;2023-06-22T01:32:56;15.40;99.90
52867;DHT22;38739;53.324;6.862;2023-06-22T01:35:23;15.40;99.90
52867;DHT22;38739;53.324;6.862;2023-06-22T01:37:50;15.40;99.90
52867;DHT22;38739;53.324;6.862;2023-06-22T01:40:16;15.40;99.90
52867;DHT22;38739;53.324;6.862;2023-06-22T01:42:43;15.40;99.90
52867;DHT22;38739;53.324;6.862;2023-06-22T01:45:10;15.40;99.90
52867;DHT22;38739;53.324;6.862;2023-06-22T01:47:36;15.40;99.90
52867;DHT22;38739;53.324;6.862;2023-06-22T01:50:03;15.40;99.90
52867;DHT22;38739;53.324;6.862;2023-06-22T01:52:29;15.40;99.90
52867;DHT22;38739;53.324;6.862;2023-06-22T01:54:55;15.30;99.90
52867;DHT22;38739;53.324;6.862;2023-06-22T01:57:23;15.30;99.90
52867;DHT22;38739;53.324;6.862;2023-06-22T02:00:02;15.30;99.90
52867;DHT22;38739;53.324;6.862;2023-06-22T02:02:39;15.30;99.90
52867;DHT22;38739;53.324;6.862;2023-06-22T02:05:08;15.20;99.90
52867;DHT22;38739;53.324;6.862;2023-06-22T02:07:46;15.20;99.90
52867;DHT22;38739;53.324;6.862;2023-06-22T02:10:14;15.20;99.90
52867;DHT22;38739;53.324;6.862;2023-06-22T02:12:42;15.20;99.90
52867;DHT22;38739;53.324;6.862;2023-06-22T02:15:09;15.10;99.90
52867;DHT22;38739;53.324;6.862;2023-06-22T02:17:35;15.10;99.90
52867;DHT22;38739;53.324;6.862;2023-06-22T02:20:03;15.10;99.90
52867;DHT22;38739;53.324;6.862;2023-06-22T02:22:34;15.10;99.90
52867;DHT22;38739;53.324;6.862;2023-06-22T02:25:00;15.10;99.90
52867;DHT22;38739;53.324;6.862;2023-06-22T02:27:25;15.10;99.90
52867;DHT22;38739;53.324;6.862;2023-06-22T02:29:51;15.10;99.90
52867;DHT22;38739;53.324;6.862;2023-06-22T02:32:17;15.10;99.90
52867;DHT22;38739;53.324;6.862;2023-06-22T02:34:43;15.00;99.90
52867;DHT22;38739;53.324;6.862;2023-06-22T02:37:13;15.00;99.90
52867;DHT22;38739;53.324;6.862;2023-06-22T02:39:40;15.00;99.90
52867;DHT22;38739;53.324;6.862;2023-06-22T02:42:06;15.00;99.90
52867;DHT22;38739;53.324;6.862;2023-06-22T02:44:32;15.00;99.90
52867;DHT22;38739;53.324;6.862;2023-06-22T02:46:57;14.90;99.90
52867;DHT22;38739;53.324;6.862;2023-06-22T02:49:23;14.90;99.90
52867;DHT22;38739;53.324;6.862;2023-06-22T02:51:49;14.90;99.90
52867;DHT22;38739;53.324;6.862;2023-06-22T02:54:15;14.90;99.90
52867;DHT22;38739;53.324;6.862;2023-06-22T02:56:42;14.90;99.90
52867;DHT22;38739;53.324;6.862;2023-06-22T02:59:10;14.90;99.90
52867;DHT22;38739;53.324;6.862;2023-06-22T03:01:36;14.90;99.90
52867;DHT22;38739;53.324;6.862;2023-06-22T03:04:09;14.90;99.90
52867;DHT22;38739;53.324;6.862;2023-06-22T03:06:35;14.90;99.90
52867;DHT22;38739;53.324;6.862;2023-06-22T03:09:03;14.90;99.90
52867;DHT22;38739;53.324;6.862;2023-06-22T03:11:30;14.90;99.90
52867;DHT22;38739;53.324;6.862;2023-06-22T03:13:56;14.90;99.90
52867;DHT22;38739;53.324;6.862;2023-06-22T03:16:22;14.90;99.90
52867;DHT22;38739;53.324;6.862;2023-06-22T03:18:47;14.80;99.90
52867;DHT22;38739;53.324;6.862;2023-06-22T03:21:13;14.80;99.90
52867;DHT22;38739;53.324;6.862;2023-06-22T03:23:41;14.80;99.90
52867;DHT22;38739;53.324;6.862;2023-06-22T03:26:07;14.80;99.90
52867;DHT22;38739;53.324;6.862;2023-06-22T03:28:33;14.80;99.90
52867;DHT22;38739;53.324;6.862;2023-06-22T03:30:59;14.80;99.90
52867;DHT22;38739;53.324;6.862;2023-06-22T03:33:24;14.80;99.90
52867;DHT22;38739;53.324;6.862;2023-06-22T03:35:50;14.80;99.90
52867;DHT22;38739;53.324;6.862;2023-06-22T03:38:16;14.80;99.90
52867;DHT22;38739;53.324;6.862;2023-06-22T03:40:42;14.80;99.90
52867;DHT22;38739;53.324;6.862;2023-06-22T03:43:08;14.80;99.90
52867;DHT22;38739;53.324;6.862;2023-06-22T03:45:34;14.90;99.90
52867;DHT22;38739;53.324;6.862;2023-06-22T03:48:00;14.90;99.90
52867;DHT22;38739;53.324;6.862;2023-06-22T03:50:26;14.90;99.90
52867;DHT22;38739;53.324;6.862;2023-06-22T03:52:52;14.90;99.90
52867;DHT22;38739;53.324;6.862;2023-06-22T03:55:19;15.00;99.90
52867;DHT22;38739;53.324;6.862;2023-06-22T03:57:45;14.90;99.90
52867;DHT22;38739;53.324;6.862;2023-06-22T04:00:12;15.00;99.90
52867;DHT22;38739;53.324;6.862;2023-06-22T04:02:38;15.00;99.90
52867;DHT22;38739;53.324;6.862;2023-06-22T04:05:04;15.00;99.90
52867;DHT22;38739;53.324;6.862;2023-06-22T04:07:31;15.00;99.90
52867;DHT22;38739;53.324;6.862;2023-06-22T04:09:57;15.00;99.90
52867;DHT22;38739;53.324;6.862;2023-06-22T04:12:23;15.10;99.90
52867;DHT22;38739;53.324;6.862;2023-06-22T04:14:48;15.10;99.90
52867;DHT22;38739;53.324;6.862;2023-06-22T04:17:14;15.20;99.90
52867;DHT22;38739;53.324;6.862;2023-06-22T04:19:40;15.20;99.90
52867;DHT22;38739;53.324;6.862;2023-06-22T04:22:06;15.20;99.90
52867;DHT22;38739;53.324;6.862;2023-06-22T04:24:33;15.30;99.90
52867;DHT22;38739;53.324;6.862;2023-06-22T04:26:59;15.30;99.90
52867;DHT22;38739;53.324;6.862;2023-06-22T04:29:31;15.30;99.90
52867;DHT22;38739;53.324;6.862;2023-06-22T04:31:57;15.30;99.90
52867;DHT22;38739;53.324;6.862;2023-06-22T04:34:24;15.40;99.90
52867;DHT22;38739;53.324;6.862;2023-06-22T04:36:53;15.40;99.90
52867;DHT22;38739;53.324;6.862;2023-06-22T04:39:19;15.40;99.90
52867;DHT22;38739;53.324;6.862;2023-06-22T04:41:45;15.50;99.90
52867;DHT22;38739;53.324;6.862;2023-06-22T04:44:18;15.50;99.90
52867;DHT22;38739;53.324;6.862;2023-06-22T04:46:55;15.60;99.90
52867;DHT22;38739;53.324;6.862;2023-06-22T04:49:26;15.60;99.90
52867;DHT22;38739;53.324;6.862;2023-06-22T04:51:58;15.60;99.90
52867;DHT22;38739;53.324;6.862;2023-06-22T04:54:24;15.70;99.90
52867;DHT22;38739;53.324;6.862;2023-06-22T04:56:50;15.70;99.90
52867;DHT22;38739;53.324;6.862;2023-06-22T04:59:22;15.80;99.90
52867;DHT22;38739;53.324;6.862;2023-06-22T05:01:48;15.90;99.90
52867;DHT22;38739;53.324;6.862;2023-06-22T05:04:13;15.90;99.90
52867;DHT22;38739;53.324;6.862;2023-06-22T05:06:39;16.00;99.90
52867;DHT22;38739;53.324;6.862;2023-06-22T05:09:05;16.10;99.90
52867;DHT22;38739;53.324;6.862;2023-06-22T05:11:31;16.10;99.90
52867;DHT22;38739;53.324;6.862;2023-06-22T05:13:56;16.20;99.90
52867;DHT22;38739;53.324;6.862;2023-06-22T05:16:22;16.20;99.90
52867;DHT22;38739;53.324;6.862;2023-06-22T05:18:52;16.30;99.90
52867;DHT22;38739;53.324;6.862;2023-06-22T05:21:22;16.30;99.90
52867;DHT22;38739;53.324;6.862;2023-06-22T05:23:48;16.40;99.90
52867;DHT22;38739;53.324;6.862;2023-06-22T05:26:14;16.40;99.90
52867;DHT22;38739;53.324;6.862;2023-06-22T05:28:39;16.50;99.90
52867;DHT22;38739;53.324;6.862;2023-06-22T05:31:05;16.60;99.90
52867;DHT22;38739;53.324;6.862;2023-06-22T05:33:31;16.70;99.90
52867;DHT22;38739;53.324;6.862;2023-06-22T05:35:56;16.70;99.90
52867;DHT22;38739;53.324;6.862;2023-06-22T05:38:22;16.80;99.90
52867;DHT22;38739;53.324;6.862;2023-06-22T05:40:48;16.90;99.90
52867;DHT22;38739;53.324;6.862;2023-06-22T05:43:13;17.00;99.90
52867;DHT22;38739;53.324;6.862;2023-06-22T05:45:39;17.00;99.90
52867;DHT22;38739;53.324;6.862;2023-06-22T05:48:05;17.10;99.90
52867;DHT22;38739;53.324;6.862;2023-06-22T05:50:31;17.10;99.90
52867;DHT22;38739;53.324;6.862;2023-06-22T05:52:56;17.20;99.90
52867;DHT22;38739;53.324;6.862;2023-06-22T05:55:22;17.20;99.90
52867;DHT22;38739;53.324;6.862;2023-06-22T05:57:48;17.30;99.90
52867;DHT22;38739;53.324;6.862;2023-06-22T06:00:14;17.40;99.90
52867;DHT22;38739;53.324;6.862;2023-06-22T06:02:40;17.50;99.90
52867;DHT22;38739;53.324;6.862;2023-06-22T06:05:12;17.50;99.90
52867;DHT22;38739;53.324;6.862;2023-06-22T06:07:42;17.60;99.90
52867;DHT22;38739;53.324;6.862;2023-06-22T06:10:08;17.70;99.90
52867;DHT22;38739;53.324;6.862;2023-06-22T06:12:34;17.80;99.90
52867;DHT22;38739;53.324;6.862;2023-06-22T06:15:00;17.80;99.90
52867;DHT22;38739;53.324;6.862;2023-06-22T06:17:25;17.90;99.90
52867;DHT22;38739;53.324;6.862;2023-06-22T06:19:51;18.00;99.90
52867;DHT22;38739;53.324;6.862;2023-06-22T06:22:17;18.10;99.90
52867;DHT22;38739;53.324;6.862;2023-06-22T06:24:45;18.20;99.90
52867;DHT22;38739;53.324;6.862;2023-06-22T06:27:11;18.20;99.90
52867;DHT22;38739;53.324;6.862;2023-06-22T06:29:36;18.30;99.90
52867;DHT22;38739;53.324;6.862;2023-06-22T06:32:02;18.40;99.90
52867;DHT22;38739;53.324;6.862;2023-06-22T06:34:28;18.50;99.90
52867;DHT22;38739;53.324;6.862;2023-06-22T06:36:54;18.70;99.90
52867;DHT22;38739;53.324;6.862;2023-06-22T06:39:20;18.90;99.90
52867;DHT22;38739;53.324;6.862;2023-06-22T06:41:46;19.00;99.90
52867;DHT22;38739;53.324;6.862;2023-06-22T06:44:11;19.10;99.90
52867;DHT22;38739;53.324;6.862;2023-06-22T06:46:37;19.20;99.90
52867;DHT22;38739;53.324;6.862;2023-06-22T06:49:03;19.20;99.90
52867;DHT22;38739;53.324;6.862;2023-06-22T06:51:29;19.30;99.90
52867;DHT22;38739;53.324;6.862;2023-06-22T06:53:55;19.40;99.90
52867;DHT22;38739;53.324;6.862;2023-06-22T06:56:20;19.50;99.90
52867;DHT22;38739;53.324;6.862;2023-06-22T06:58:46;19.60;99.90
52867;DHT22;38739;53.324;6.862;2023-06-22T07:01:12;19.70;99.90
52867;DHT22;38739;53.324;6.862;2023-06-22T07:03:38;19.80;99.90
52867;DHT22;38739;53.324;6.862;2023-06-22T07:06:04;19.90;99.90
52867;DHT22;38739;53.324;6.862;2023-06-22T07:08:30;20.10;99.90
52867;DHT22;38739;53.324;6.862;2023-06-22T07:10:55;20.20;99.90
52867;DHT22;38739;53.324;6.862;2023-06-22T07:13:21;20.40;99.90
52867;DHT22;38739;53.324;6.862;2023-06-22T07:15:47;20.50;99.90
52867;DHT22;38739;53.324;6.862;2023-06-22T07:18:13;20.70;99.90
52867;DHT22;38739;53.324;6.862;2023-06-22T07:20:38;20.80;99.90
52867;DHT22;38739;53.324;6.862;2023-06-22T07:23:05;20.90;99.90
52867;DHT22;38739;53.324;6.862;2023-06-22T07:25:30;21.10;99.90
52867;DHT22;38739;53.324;6.862;2023-06-22T07:28:05;21.30;99.90
52867;DHT22;38739;53.324;6.862;2023-06-22T07:30:31;21.50;99.90
52867;DHT22;38739;53.324;6.862;2023-06-22T07:32:58;21.70;99.90
52867;DHT22;38739;53.324;6.862;2023-06-22T07:35:24;22.00;99.90
52867;DHT22;38739;53.324;6.862;2023-06-22T07:37:50;22.20;99.90
52867;DHT22;38739;53.324;6.862;2023-06-22T07:40:16;22.50;99.90
52867;DHT22;38739;53.324;6.862;2023-06-22T07:42:41;22.70;99.90
52867;DHT22;38739;53.324;6.862;2023-06-22T07:45:07;22.90;99.90
52867;DHT22;38739;53.324;6.862;2023-06-22T07:47:34;23.00;99.90
52867;DHT22;38739;53.324;6.862;2023-06-22T07:50:01;23.10;99.90
52867;DHT22;38739;53.324;6.862;2023-06-22T07:52:28;23.30;99.90
52867;DHT22;38739;53.324;6.862;2023-06-22T07:54:54;23.50;99.90
52867;DHT22;38739;53.324;6.862;2023-06-22T07:57:20;23.70;99.90
52867;DHT22;38739;53.324;6.862;2023-06-22T07:59:46;23.90;99.90
52867;DHT22;38739;53.324;6.862;2023-06-22T08:02:12;24.10;99.90
52867;DHT22;38739;53.324;6.862;2023-06-22T08:04:38;24.20;99.90
52867;DHT22;38739;53.324;6.862;2023-06-22T08:07:04;24.40;99.90
52867;DHT22;38739;53.324;6.862;2023-06-22T08:09:31;24.50;99.90
52867;DHT22;38739;53.324;6.862;2023-06-22T08:11:57;24.60;99.90
52867;DHT22;38739;53.324;6.862;2023-06-22T08:14:26;24.70;99.90
52867;DHT22;38739;53.324;6.862;2023-06-22T08:16:52;24.80;99.90
52867;DHT22;38739;53.324;6.862;2023-06-22T08:19:18;24.90;99.90
52867;DHT22;38739;53.324;6.862;2023-06-22T08:21:44;25.10;99.90
52867;DHT22;38739;53.324;6.862;2023-06-22T08:24:09;25.20;99.90
52867;DHT22;38739;53.324;6.862;2023-06-22T08:26:35;25.30;99.90
52867;DHT22;38739;53.324;6.862;2023-06-22T08:29:03;25.40;99.90
52867;DHT22;38739;53.324;6.862;2023-06-22T08:31:29;25.50;99.90
52867;DHT22;38739;53.324;6.862;2023-06-22T08:33:55;25.60;99.90
52867;DHT22;38739;53.324;6.862;2023-06-22T08:36:21;25.70;99.90
52867;DHT22;38739;53.324;6.862;2023-06-22T08:38:47;25.90;99.90
52867;DHT22;38739;53.324;6.862;2023-06-22T08:41:17;26.10;99.90
52867;DHT22;38739;53.324;6.862;2023-06-22T08:43:43;26.10;99.90
52867;DHT22;38739;53.324;6.862;2023-06-22T08:46:10;26.10;99.90
52867;DHT22;38739;53.324;6.862;2023-06-22T08:48:36;26.10;99.90
52867;DHT22;38739;53.324;6.862;2023-06-22T08:51:02;26.30;99.90
52867;DHT22;38739;53.324;6.862;2023-06-22T08:53:28;26.30;99.90
52867;DHT22;38739;53.324;6.862;2023-06-22T08:55:54;26.50;99.90
52867;DHT22;38739;53.324;6.862;2023-06-22T08:58:20;26.70;99.90
52867;DHT22;38739;53.324;6.862;2023-06-22T09:00:47;26.80;99.90
52867;DHT22;38739;53.324;6.862;2023-06-22T09:03:13;26.90;99.90
52867;DHT22;38739;53.324;6.862;2023-06-22T09:05:39;27.10;99.90
52867;DHT22;38739;53.324;6.862;2023-06-22T09:08:04;27.30;99.90
52867;DHT22;38739;53.324;6.862;2023-06-22T09:10:30;27.30;99.10
52867;DHT22;38739;53.324;6.862;2023-06-22T09:12:57;27.40;99.10
52867;DHT22;38739;53.324;6.862;2023-06-22T09:15:22;27.50;98.60
52867;DHT22;38739;53.324;6.862;2023-06-22T09:17:48;27.50;99.20
52867;DHT22;38739;53.324;6.862;2023-06-22T09:20:14;27.50;98.50
52867;DHT22;38739;53.324;6.862;2023-06-22T09:22:41;27.70;98.60
52867;DHT22;38739;53.324;6.862;2023-06-22T09:25:07;27.70;96.10
52867;DHT22;38739;53.324;6.862;2023-06-22T09:27:33;27.80;97.00
52867;DHT22;38739;53.324;6.862;2023-06-22T09:29:58;27.90;96.80
52867;DHT22;38739;53.324;6.862;2023-06-22T09:32:27;28.10;95.40
52867;DHT22;38739;53.324;6.862;2023-06-22T09:34:53;28.10;94.80
52867;DHT22;38739;53.324;6.862;2023-06-22T09:37:18;28.10;93.80
52867;DHT22;38739;53.324;6.862;2023-06-22T09:39:44;28.10;93.40
52867;DHT22;38739;53.324;6.862;2023-06-22T09:42:10;28.20;93.20
52867;DHT22;38739;53.324;6.862;2023-06-22T09:44:35;28.40;94.40
52867;DHT22;38739;53.324;6.862;2023-06-22T09:47:01;28.70;94.00
52867;DHT22;38739;53.324;6.862;2023-06-22T09:49:27;28.70;92.70
52867;DHT22;38739;53.324;6.862;2023-06-22T09:51:53;28.90;93.00
52867;DHT22;38739;53.324;6.862;2023-06-22T09:54:18;28.70;91.30
52867;DHT22;38739;53.324;6.862;2023-06-22T09:56:44;28.50;92.10
52867;DHT22;38739;53.324;6.862;2023-06-22T09:59:10;28.40;92.30
52867;DHT22;38739;53.324;6.862;2023-06-22T10:01:36;28.30;93.70
52867;DHT22;38739;53.324;6.862;2023-06-22T10:04:02;28.60;93.20
52867;DHT22;38739;53.324;6.862;2023-06-22T10:06:28;28.50;91.70
52867;DHT22;38739;53.324;6.862;2023-06-22T10:08:54;28.50;91.10
52867;DHT22;38739;53.324;6.862;2023-06-22T10:11:19;28.50;91.90
52867;DHT22;38739;53.324;6.862;2023-06-22T10:13:45;28.80;92.50
52867;DHT22;38739;53.324;6.862;2023-06-22T10:16:11;29.00;92.40
52867;DHT22;38739;53.324;6.862;2023-06-22T10:18:36;29.00;91.80
52867;DHT22;38739;53.324;6.862;2023-06-22T10:21:02;29.00;91.80
52867;DHT22;38739;53.324;6.862;2023-06-22T10:23:28;29.10;92.40
52867;DHT22;38739;53.324;6.862;2023-06-22T10:25:54;29.20;93.00
52867;DHT22;38739;53.324;6.862;2023-06-22T10:28:19;29.10;91.80
52867;DHT22;38739;53.324;6.862;2023-06-22T10:30:45;29.10;92.20
52867;DHT22;38739;53.324;6.862;2023-06-22T10:33:11;29.00;92.20
52867;DHT22;38739;53.324;6.862;2023-06-22T10:35:37;29.00;91.70
52867;DHT22;38739;53.324;6.862;2023-06-22T10:38:04;29.10;91.90
52867;DHT22;38739;53.324;6.862;2023-06-22T10:40:29;29.20;92.30
52867;DHT22;38739;53.324;6.862;2023-06-22T10:42:55;29.40;92.10
52867;DHT22;38739;53.324;6.862;2023-06-22T10:45:21;29.50;91.90
52867;DHT22;38739;53.324;6.862;2023-06-22T10:47:46;29.60;91.90
52867;DHT22;38739;53.324;6.862;2023-06-22T10:50:12;29.50;91.20
52867;DHT22;38739;53.324;6.862;2023-06-22T10:52:38;29.60;90.60
52867;DHT22;38739;53.324;6.862;2023-06-22T10:55:04;29.50;90.80
52867;DHT22;38739;53.324;6.862;2023-06-22T10:57:30;29.50;90.60
52867;DHT22;38739;53.324;6.862;2023-06-22T10:59:55;29.40;90.40
52867;DHT22;38739;53.324;6.862;2023-06-22T11:02:21;29.30;90.90
52867;DHT22;38739;53.324;6.862;2023-06-22T11:04:47;29.40;91.60
52867;DHT22;38739;53.324;6.862;2023-06-22T11:07:13;29.50;91.50
52867;DHT22;38739;53.324;6.862;2023-06-22T11:09:39;29.40;91.10
52867;DHT22;38739;53.324;6.862;2023-06-22T11:12:05;29.30;90.00
52867;DHT22;38739;53.324;6.862;2023-06-22T11:14:31;29.00;90.30
52867;DHT22;38739;53.324;6.862;2023-06-22T11:16:59;29.10;91.40
52867;DHT22;38739;53.324;6.862;2023-06-22T11:19:25;29.30;91.40
52867;DHT22;38739;53.324;6.862;2023-06-22T11:21:50;29.50;91.80
52867;DHT22;38739;53.324;6.862;2023-06-22T11:24:16;29.80;90.30
52867;DHT22;38739;53.324;6.862;2023-06-22T11:26:42;29.70;89.40
52867;DHT22;38739;53.324;6.862;2023-06-22T11:29:08;29.80;90.10
52867;DHT22;38739;53.324;6.862;2023-06-22T11:31:37;29.70;88.40
52867;DHT22;38739;53.324;6.862;2023-06-22T11:34:03;29.80;88.20
52867;DHT22;38739;53.324;6.862;2023-06-22T11:36:29;29.70;89.40
52867;DHT22;38739;53.324;6.862;2023-06-22T11:38:58;29.50;90.10
52867;DHT22;38739;53.324;6.862;2023-06-22T11:41:24;29.50;89.20
52867;DHT22;38739;53.324;6.862;2023-06-22T11:43:49;29.50;88.50
52867;DHT22;38739;53.324;6.862;2023-06-22T11:46:15;29.60;88.70
52867;DHT22;38739;53.324;6.862;2023-06-22T11:48:41;29.80;90.00
52867;DHT22;38739;53.324;6.862;2023-06-22T11:51:06;30.10;89.10
52867;DHT22;38739;53.324;6.862;2023-06-22T11:53:34;30.00;88.30
52867;DHT22;38739;53.324;6.862;2023-06-22T11:56:00;30.10;88.90
52867;DHT22;38739;53.324;6.862;2023-06-22T11:58:26;30.10;87.80
52867;DHT22;38739;53.324;6.862;2023-06-22T12:00:53;30.10;88.70
52867;DHT22;38739;53.324;6.862;2023-06-22T12:03:19;29.90;86.70
52867;DHT22;38739;53.324;6.862;2023-06-22T12:05:47;29.60;87.80
52867;DHT22;38739;53.324;6.862;2023-06-22T12:08:13;29.40;87.90
52867;DHT22;38739;53.324;6.862;2023-06-22T12:10:39;29.20;88.80
52867;DHT22;38739;53.324;6.862;2023-06-22T12:13:05;29.10;88.80
52867;DHT22;38739;53.324;6.862;2023-06-22T12:15:31;28.80;88.70
52867;DHT22;38739;53.324;6.862;2023-06-22T12:17:56;28.80;89.70
52867;DHT22;38739;53.324;6.862;2023-06-22T12:20:22;28.70;88.70
52867;DHT22;38739;53.324;6.862;2023-06-22T12:22:48;28.60;90.40
52867;DHT22;38739;53.324;6.862;2023-06-22T12:25:16;28.40;90.00
52867;DHT22;38739;53.324;6.862;2023-06-22T12:27:42;28.20;90.80
52867;DHT22;38739;53.324;6.862;2023-06-22T12:30:08;28.20;90.20
52867;DHT22;38739;53.324;6.862;2023-06-22T12:32:34;27.90;90.20
52867;DHT22;38739;53.324;6.862;2023-06-22T12:35:00;27.80;91.10
52867;DHT22;38739;53.324;6.862;2023-06-22T12:37:26;27.70;91.40
52867;DHT22;38739;53.324;6.862;2023-06-22T12:39:52;27.70;91.50
52867;DHT22;38739;53.324;6.862;2023-06-22T12:42:18;27.70;91.40
52867;DHT22;38739;53.324;6.862;2023-06-22T12:44:44;27.70;92.10
52867;DHT22;38739;53.324;6.862;2023-06-22T12:47:09;27.80;91.40
52867;DHT22;38739;53.324;6.862;2023-06-22T12:49:35;27.70;91.10
52867;DHT22;38739;53.324;6.862;2023-06-22T12:52:02;27.60;91.50
52867;DHT22;38739;53.324;6.862;2023-06-22T12:54:28;27.30;91.20
52867;DHT22;38739;53.324;6.862;2023-06-22T12:56:56;27.30;92.70
52867;DHT22;38739;53.324;6.862;2023-06-22T12:59:22;27.20;92.30
52867;DHT22;38739;53.324;6.862;2023-06-22T13:01:47;27.20;92.90
52867;DHT22;38739;53.324;6.862;2023-06-22T13:04:13;27.00;92.80
52867;DHT22;38739;53.324;6.862;2023-06-22T13:06:46;26.90;93.20
52867;DHT22;38739;53.324;6.862;2023-06-22T13:09:15;26.70;92.80
52867;DHT22;38739;53.324;6.862;2023-06-22T13:11:41;26.70;93.80
52867;DHT22;38739;53.324;6.862;2023-06-22T13:14:07;26.80;93.70
52867;DHT22;38739;53.324;6.862;2023-06-22T13:16:33;26.90;94.10
52867;DHT22;38739;53.324;6.862;2023-06-22T13:18:59;26.80;93.20
52867;DHT22;38739;53.324;6.862;2023-06-22T13:21:24;26.80;93.00
52867;DHT22;38739;53.324;6.862;2023-06-22T13:23:50;26.70;92.70
52867;DHT22;38739;53.324;6.862;2023-06-22T13:26:16;26.50;93.40
52867;DHT22;38739;53.324;6.862;2023-06-22T13:28:41;26.30;93.50
52867;DHT22;38739;53.324;6.862;2023-06-22T13:31:07;26.20;93.20
52867;DHT22;38739;53.324;6.862;2023-06-22T13:33:33;26.20;93.60
52867;DHT22;38739;53.324;6.862;2023-06-22T13:36:01;26.00;93.70
52867;DHT22;38739;53.324;6.862;2023-06-22T13:38:29;25.90;94.20
52867;DHT22;38739;53.324;6.862;2023-06-22T13:40:56;25.90;94.00
52867;DHT22;38739;53.324;6.862;2023-06-22T13:43:24;25.90;94.70
52867;DHT22;38739;53.324;6.862;2023-06-22T13:45:49;25.80;95.60
52867;DHT22;38739;53.324;6.862;2023-06-22T13:48:15;25.70;94.70
52867;DHT22;38739;53.324;6.862;2023-06-22T13:50:41;25.70;95.20
52867;DHT22;38739;53.324;6.862;2023-06-22T13:53:06;25.70;95.40
52867;DHT22;38739;53.324;6.862;2023-06-22T13:55:32;25.60;95.80
52867;DHT22;38739;53.324;6.862;2023-06-22T13:57:58;25.60;95.80
52867;DHT22;38739;53.324;6.862;2023-06-22T14:00:23;25.70;96.20
52867;DHT22;38739;53.324;6.862;2023-06-22T14:02:49;25.70;96.00
52867;DHT22;38739;53.324;6.862;2023-06-22T14:05:15;25.60;95.80
52867;DHT22;38739;53.324;6.862;2023-06-22T14:07:40;25.40;95.30
52867;DHT22;38739;53.324;6.862;2023-06-22T14:10:06;25.30;95.90
52867;DHT22;38739;53.324;6.862;2023-06-22T14:12:32;25.20;96.70
52867;DHT22;38739;53.324;6.862;2023-06-22T14:14:58;25.20;97.00
52867;DHT22;38739;53.324;6.862;2023-06-22T14:17:24;25.20;97.80
52867;DHT22;38739;53.324;6.862;2023-06-22T14:19:52;25.20;97.60
52867;DHT22;38739;53.324;6.862;2023-06-22T14:22:21;25.10;97.60
52867;DHT22;38739;53.324;6.862;2023-06-22T14:24:48;24.90;97.50
52867;DHT22;38739;53.324;6.862;2023-06-22T14:27:14;24.80;98.00
52867;DHT22;38739;53.324;6.862;2023-06-22T14:29:40;24.70;98.60
52867;DHT22;38739;53.324;6.862;2023-06-22T14:32:06;24.70;98.70
52867;DHT22;38739;53.324;6.862;2023-06-22T14:34:32;24.70;98.40
52867;DHT22;38739;53.324;6.862;2023-06-22T14:37:01;24.50;98.00
52867;DHT22;38739;53.324;6.862;2023-06-22T14:39:27;24.40;97.80
52867;DHT22;38739;53.324;6.862;2023-06-22T14:41:53;24.40;98.80
52867;DHT22;38739;53.324;6.862;2023-06-22T14:44:18;24.30;98.60
52867;DHT22;38739;53.324;6.862;2023-06-22T14:46:44;24.30;99.00
52867;DHT22;38739;53.324;6.862;2023-06-22T14:49:10;24.30;98.90
52867;DHT22;38739;53.324;6.862;2023-06-22T14:51:35;24.30;99.00
52867;DHT22;38739;53.324;6.862;2023-06-22T14:54:01;24.30;98.20
52867;DHT22;38739;53.324;6.862;2023-06-22T14:56:27;24.30;98.10
52867;DHT22;38739;53.324;6.862;2023-06-22T14:58:52;24.30;98.40
52867;DHT22;38739;53.324;6.862;2023-06-22T15:01:18;24.30;98.10
52867;DHT22;38739;53.324;6.862;2023-06-22T15:03:44;24.30;97.10
52867;DHT22;38739;53.324;6.862;2023-06-22T15:06:10;24.20;97.40
52867;DHT22;38739;53.324;6.862;2023-06-22T15:08:40;24.20;96.80
52867;DHT22;38739;53.324;6.862;2023-06-22T15:11:07;24.10;96.40
52867;DHT22;38739;53.324;6.862;2023-06-22T15:13:33;24.10;96.40
52867;DHT22;38739;53.324;6.862;2023-06-22T15:16:02;24.00;95.70
52867;DHT22;38739;53.324;6.862;2023-06-22T15:18:31;23.90;95.70
52867;DHT22;38739;53.324;6.862;2023-06-22T15:20:59;23.90;96.30
52867;DHT22;38739;53.324;6.862;2023-06-22T15:23:27;23.80;96.00
52867;DHT22;38739;53.324;6.862;2023-06-22T15:25:54;23.90;96.20
52867;DHT22;38739;53.324;6.862;2023-06-22T15:28:20;23.90;96.00
52867;DHT22;38739;53.324;6.862;2023-06-22T15:30:47;23.90;95.60
52867;DHT22;38739;53.324;6.862;2023-06-22T15:33:14;23.80;95.70